sensor_id;sensor_type;location;lat;lon;timestamp;P1;durP1;ratioP1;P2;durP2;ratioP2
7471;SDS011;3777;48.722;8.110;2022-08-21T00:00:57;5.60;;;3.03;;
7471;SDS011;3777;48.722;8.110;2022-08-21T00:03:25;7.83;;;3.70;;
7471;SDS011;3777;48.722;8.110;2022-08-21T00:05:54;6.57;;;3.27;;
7471;SDS011;3777;48.722;8.110;2022-08-21T00:08:21;4.13;;;3.37;;
7471;SDS011;3777;48.722;8.110;2022-08-21T00:10:48;5.03;;;3.40;;
7471;SDS011;3777;48.722;8.110;2022-08-21T00:13:16;7.00;;;3.27;;
7471;SDS011;3777;48.722;8.110;2022-08-21T00:15:46;4.43;;;3.20;;
7471;SDS011;3777;48.722;8.110;2022-08-21T00:18:14;4.57;;;3.43;;
7471;SDS011;3777;48.722;8.110;2022-08-21T00:20:43;8.33;;;3.50;;
7471;SDS011;3777;48.722;8.110;2022-08-21T00:23:12;5.23;;;3.50;;
7471;SDS011;3777;48.722;8.110;2022-08-21T00:25:40;4.93;;;3.60;;
7471;SDS011;3777;48.722;8.110;2022-08-21T00:28:08;4.47;;;3.07;;
7471;SDS011;3777;48.722;8.110;2022-08-21T00:30:36;5.77;;;3.70;;
7471;SDS011;3777;48.722;8.110;2022-08-21T00:33:05;5.30;;;3.67;;
7471;SDS011;3777;48.722;8.110;2022-08-21T00:35:35;6.20;;;3.80;;
7471;SDS011;3777;48.722;8.110;2022-08-21T00:38:03;4.53;;;3.13;;
7471;SDS011;3777;48.722;8.110;2022-08-21T00:40:35;5.60;;;3.43;;
7471;SDS011;3777;48.722;8.110;2022-08-21T00:43:05;6.00;;;3.50;;
7471;SDS011;3777;48.722;8.110;2022-08-21T00:45:33;4.40;;;3.30;;
7471;SDS011;3777;48.722;8.110;2022-08-21T00:48:01;5.10;;;3.33;;
7471;SDS011;3777;48.722;8.110;2022-08-21T00:50:29;6.17;;;3.57;;
7471;SDS011;3777;48.722;8.110;2022-08-21T00:52:59;5.40;;;3.60;;
7471;SDS011;3777;48.722;8.110;2022-08-21T00:55:28;4.07;;;3.53;;
7471;SDS011;3777;48.722;8.110;2022-08-21T00:57:57;5.17;;;3.70;;
7471;SDS011;3777;48.722;8.110;2022-08-21T01:00:28;5.93;;;3.53;;
7471;SDS011;3777;48.722;8.110;2022-08-21T01:02:57;4.47;;;3.70;;
7471;SDS011;3777;48.722;8.110;2022-08-21T01:05:25;4.33;;;3.63;;
7471;SDS011;3777;48.722;8.110;2022-08-21T01:07:52;5.80;;;3.37;;
7471;SDS011;3777;48.722;8.110;2022-08-21T01:10:22;9.20;;;3.80;;
7471;SDS011;3777;48.722;8.110;2022-08-21T01:12:49;8.17;;;4.33;;
7471;SDS011;3777;48.722;8.110;2022-08-21T01:15:19;4.77;;;3.70;;
7471;SDS011;3777;48.722;8.110;2022-08-21T01:17:49;4.93;;;3.63;;
7471;SDS011;3777;48.722;8.110;2022-08-21T01:20:16;4.63;;;3.47;;
7471;SDS011;3777;48.722;8.110;2022-08-21T01:22:45;6.10;;;3.77;;
7471;SDS011;3777;48.722;8.110;2022-08-21T01:25:13;7.13;;;3.80;;
7471;SDS011;3777;48.722;8.110;2022-08-21T01:27:42;5.50;;;3.53;;
7471;SDS011;3777;48.722;8.110;2022-08-21T01:30:10;6.57;;;3.80;;
7471;SDS011;3777;48.722;8.110;2022-08-21T01:32:40;5.00;;;3.43;;
7471;SDS011;3777;48.722;8.110;2022-08-21T01:35:07;6.63;;;3.67;;
7471;SDS011;3777;48.722;8.110;2022-08-21T01:37:36;7.13;;;3.80;;
7471;SDS011;3777;48.722;8.110;2022-08-21T01:40:05;7.20;;;3.80;;
7471;SDS011;3777;48.722;8.110;2022-08-21T01:42:34;4.80;;;3.30;;
7471;SDS011;3777;48.722;8.110;2022-08-21T01:45:01;5.27;;;3.50;;
7471;SDS011;3777;48.722;8.110;2022-08-21T01:47:29;5.10;;;3.60;;
7471;SDS011;3777;48.722;8.110;2022-08-21T01:49:56;4.43;;;3.70;;
7471;SDS011;3777;48.722;8.110;2022-08-21T01:52:23;8.20;;;3.87;;
7471;SDS011;3777;48.722;8.110;2022-08-21T01:54:50;4.80;;;3.73;;
7471;SDS011;3777;48.722;8.110;2022-08-21T01:57:18;5.70;;;3.70;;
7471;SDS011;3777;48.722;8.110;2022-08-21T01:59:46;4.80;;;3.83;;
7471;SDS011;3777;48.722;8.110;2022-08-21T02:02:12;4.93;;;3.57;;
7471;SDS011;3777;48.722;8.110;2022-08-21T02:04:39;6.20;;;3.73;;
7471;SDS011;3777;48.722;8.110;2022-08-21T02:07:06;6.37;;;3.63;;
7471;SDS011;3777;48.722;8.110;2022-08-21T02:09:34;5.47;;;3.83;;
7471;SDS011;3777;48.722;8.110;2022-08-21T02:12:01;5.87;;;3.77;;
7471;SDS011;3777;48.722;8.110;2022-08-21T02:14:29;9.57;;;4.27;;
7471;SDS011;3777;48.722;8.110;2022-08-21T02:16:57;7.33;;;4.27;;
7471;SDS011;3777;48.722;8.110;2022-08-21T02:19:24;8.40;;;4.37;;
7471;SDS011;3777;48.722;8.110;2022-08-21T02:21:50;4.87;;;3.80;;
7471;SDS011;3777;48.722;8.110;2022-08-21T02:24:17;7.23;;;4.40;;
7471;SDS011;3777;48.722;8.110;2022-08-21T02:26:44;6.10;;;3.73;;
7471;SDS011;3777;48.722;8.110;2022-08-21T02:29:11;4.80;;;3.80;;
7471;SDS011;3777;48.722;8.110;2022-08-21T02:31:40;7.43;;;4.27;;
7471;SDS011;3777;48.722;8.110;2022-08-21T02:34:07;6.10;;;3.80;;
7471;SDS011;3777;48.722;8.110;2022-08-21T02:36:34;5.80;;;3.70;;
7471;SDS011;3777;48.722;8.110;2022-08-21T02:39:02;5.97;;;4.10;;
7471;SDS011;3777;48.722;8.110;2022-08-21T02:41:29;5.90;;;3.93;;
7471;SDS011;3777;48.722;8.110;2022-08-21T02:43:56;6.83;;;3.90;;
7471;SDS011;3777;48.722;8.110;2022-08-21T02:46:23;6.53;;;4.10;;
7471;SDS011;3777;48.722;8.110;2022-08-21T02:48:52;5.33;;;3.87;;
7471;SDS011;3777;48.722;8.110;2022-08-21T02:51:19;6.77;;;4.10;;
7471;SDS011;3777;48.722;8.110;2022-08-21T02:53:47;5.77;;;3.80;;
7471;SDS011;3777;48.722;8.110;2022-08-21T02:56:16;6.23;;;3.80;;
7471;SDS011;3777;48.722;8.110;2022-08-21T02:58:46;8.33;;;4.27;;
7471;SDS011;3777;48.722;8.110;2022-08-21T03:01:14;7.93;;;3.97;;
7471;SDS011;3777;48.722;8.110;2022-08-21T03:03:42;6.07;;;4.10;;
7471;SDS011;3777;48.722;8.110;2022-08-21T03:06:13;7.97;;;4.40;;
7471;SDS011;3777;48.722;8.110;2022-08-21T03:08:41;6.83;;;3.80;;
7471;SDS011;3777;48.722;8.110;2022-08-21T03:11:10;8.67;;;4.57;;
7471;SDS011;3777;48.722;8.110;2022-08-21T03:13:37;6.47;;;4.07;;
7471;SDS011;3777;48.722;8.110;2022-08-21T03:16:05;4.83;;;4.20;;
7471;SDS011;3777;48.722;8.110;2022-08-21T03:18:32;4.53;;;3.70;;
7471;SDS011;3777;48.722;8.110;2022-08-21T03:21:00;5.90;;;4.20;;
7471;SDS011;3777;48.722;8.110;2022-08-21T03:23:29;6.40;;;3.97;;
7471;SDS011;3777;48.722;8.110;2022-08-21T03:25:57;6.37;;;4.13;;
7471;SDS011;3777;48.722;8.110;2022-08-21T03:28:24;6.07;;;4.30;;
7471;SDS011;3777;48.722;8.110;2022-08-21T03:30:52;6.20;;;4.30;;
7471;SDS011;3777;48.722;8.110;2022-08-21T03:33:19;6.23;;;4.23;;
7471;SDS011;3777;48.722;8.110;2022-08-21T03:35:47;8.03;;;4.27;;
7471;SDS011;3777;48.722;8.110;2022-08-21T03:38:21;7.23;;;4.30;;
7471;SDS011;3777;48.722;8.110;2022-08-21T03:40:49;6.07;;;4.33;;
7471;SDS011;3777;48.722;8.110;2022-08-21T03:43:16;4.13;;;3.73;;
7471;SDS011;3777;48.722;8.110;2022-08-21T03:45:43;5.73;;;4.37;;
7471;SDS011;3777;48.722;8.110;2022-08-21T03:48:10;6.03;;;4.37;;
7471;SDS011;3777;48.722;8.110;2022-08-21T03:50:38;6.13;;;4.37;;
7471;SDS011;3777;48.722;8.110;2022-08-21T03:53:07;7.43;;;4.40;;
7471;SDS011;3777;48.722;8.110;2022-08-21T03:55:35;4.67;;;4.03;;
7471;SDS011;3777;48.722;8.110;2022-08-21T03:58:03;8.30;;;4.20;;
7471;SDS011;3777;48.722;8.110;2022-08-21T04:00:30;4.73;;;4.07;;
7471;SDS011;3777;48.722;8.110;2022-08-21T04:02:57;7.13;;;4.60;;
7471;SDS011;3777;48.722;8.110;2022-08-21T04:05:25;5.40;;;4.20;;
7471;SDS011;3777;48.722;8.110;2022-08-21T04:07:56;6.43;;;4.40;;
7471;SDS011;3777;48.722;8.110;2022-08-21T04:10:24;6.03;;;4.30;;
7471;SDS011;3777;48.722;8.110;2022-08-21T04:12:53;6.83;;;4.30;;
7471;SDS011;3777;48.722;8.110;2022-08-21T04:15:22;7.23;;;4.33;;
7471;SDS011;3777;48.722;8.110;2022-08-21T04:17:51;8.87;;;4.57;;
7471;SDS011;3777;48.722;8.110;2022-08-21T04:20:19;6.83;;;4.20;;
7471;SDS011;3777;48.722;8.110;2022-08-21T04:22:46;4.97;;;3.90;;
7471;SDS011;3777;48.722;8.110;2022-08-21T04:25:14;6.33;;;4.30;;
7471;SDS011;3777;48.722;8.110;2022-08-21T04:27:42;4.20;;;3.80;;
7471;SDS011;3777;48.722;8.110;2022-08-21T04:30:10;6.50;;;4.70;;
7471;SDS011;3777;48.722;8.110;2022-08-21T04:32:41;6.07;;;4.03;;
7471;SDS011;3777;48.722;8.110;2022-08-21T04:35:09;6.07;;;4.33;;
7471;SDS011;3777;48.722;8.110;2022-08-21T04:37:37;7.67;;;4.53;;
7471;SDS011;3777;48.722;8.110;2022-08-21T04:40:04;4.73;;;3.80;;
7471;SDS011;3777;48.722;8.110;2022-08-21T04:42:40;6.93;;;4.10;;
7471;SDS011;3777;48.722;8.110;2022-08-21T04:45:14;5.07;;;4.10;;
7471;SDS011;3777;48.722;8.110;2022-08-21T04:47:46;5.93;;;4.30;;
7471;SDS011;3777;48.722;8.110;2022-08-21T04:50:14;6.77;;;4.43;;
7471;SDS011;3777;48.722;8.110;2022-08-21T04:52:41;7.93;;;4.50;;
7471;SDS011;3777;48.722;8.110;2022-08-21T04:55:09;5.83;;;4.50;;
7471;SDS011;3777;48.722;8.110;2022-08-21T04:57:36;7.63;;;4.33;;
7471;SDS011;3777;48.722;8.110;2022-08-21T05:00:05;6.97;;;4.77;;
7471;SDS011;3777;48.722;8.110;2022-08-21T05:02:32;7.10;;;4.67;;
7471;SDS011;3777;48.722;8.110;2022-08-21T05:05:01;5.03;;;4.23;;
7471;SDS011;3777;48.722;8.110;2022-08-21T05:07:28;6.03;;;4.63;;
7471;SDS011;3777;48.722;8.110;2022-08-21T05:09:57;6.27;;;4.23;;
7471;SDS011;3777;48.722;8.110;2022-08-21T05:12:26;9.50;;;4.50;;
7471;SDS011;3777;48.722;8.110;2022-08-21T05:14:53;5.70;;;4.50;;
7471;SDS011;3777;48.722;8.110;2022-08-21T05:17:20;5.83;;;4.20;;
7471;SDS011;3777;48.722;8.110;2022-08-21T05:19:48;9.17;;;4.53;;
7471;SDS011;3777;48.722;8.110;2022-08-21T05:22:20;5.10;;;4.17;;
7471;SDS011;3777;48.722;8.110;2022-08-21T05:24:47;7.40;;;4.60;;
7471;SDS011;3777;48.722;8.110;2022-08-21T05:27:14;6.73;;;4.87;;
7471;SDS011;3777;48.722;8.110;2022-08-21T05:29:41;7.70;;;4.30;;
7471;SDS011;3777;48.722;8.110;2022-08-21T05:32:09;7.70;;;4.20;;
7471;SDS011;3777;48.722;8.110;2022-08-21T05:34:37;8.80;;;4.37;;
7471;SDS011;3777;48.722;8.110;2022-08-21T05:37:04;5.37;;;4.27;;
7471;SDS011;3777;48.722;8.110;2022-08-21T05:39:32;5.73;;;4.20;;
7471;SDS011;3777;48.722;8.110;2022-08-21T05:41:59;6.77;;;4.27;;
7471;SDS011;3777;48.722;8.110;2022-08-21T05:44:26;5.43;;;3.77;;
7471;SDS011;3777;48.722;8.110;2022-08-21T05:46:53;5.40;;;4.03;;
7471;SDS011;3777;48.722;8.110;2022-08-21T05:49:21;6.73;;;4.37;;
7471;SDS011;3777;48.722;8.110;2022-08-21T05:51:48;5.17;;;4.40;;
7471;SDS011;3777;48.722;8.110;2022-08-21T05:54:15;9.20;;;4.40;;
7471;SDS011;3777;48.722;8.110;2022-08-21T05:56:43;6.10;;;4.07;;
7471;SDS011;3777;48.722;8.110;2022-08-21T05:59:10;9.33;;;4.30;;
7471;SDS011;3777;48.722;8.110;2022-08-21T06:01:38;5.27;;;4.20;;
7471;SDS011;3777;48.722;8.110;2022-08-21T06:04:06;5.87;;;3.93;;
7471;SDS011;3777;48.722;8.110;2022-08-21T06:06:33;7.30;;;3.90;;
7471;SDS011;3777;48.722;8.110;2022-08-21T06:09:01;6.07;;;3.53;;
7471;SDS011;3777;48.722;8.110;2022-08-21T06:11:28;6.20;;;4.03;;
7471;SDS011;3777;48.722;8.110;2022-08-21T06:13:57;5.27;;;3.60;;
7471;SDS011;3777;48.722;8.110;2022-08-21T06:16:25;4.53;;;3.23;;
7471;SDS011;3777;48.722;8.110;2022-08-21T06:18:52;8.03;;;3.80;;
7471;SDS011;3777;48.722;8.110;2022-08-21T06:21:19;4.70;;;2.90;;
7471;SDS011;3777;48.722;8.110;2022-08-21T06:23:47;5.67;;;3.30;;
7471;SDS011;3777;48.722;8.110;2022-08-21T06:26:14;7.53;;;3.85;;
7471;SDS011;3777;48.722;8.110;2022-08-21T06:28:41;5.43;;;3.20;;
7471;SDS011;3777;48.722;8.110;2022-08-21T06:31:15;6.18;;;3.20;;
7471;SDS011;3777;48.722;8.110;2022-08-21T06:33:44;6.03;;;3.42;;
7471;SDS011;3777;48.722;8.110;2022-08-21T06:36:11;4.70;;;3.47;;
7471;SDS011;3777;48.722;8.110;2022-08-21T06:38:39;6.20;;;3.72;;
7471;SDS011;3777;48.722;8.110;2022-08-21T06:41:06;6.05;;;3.80;;
7471;SDS011;3777;48.722;8.110;2022-08-21T06:43:34;5.87;;;4.03;;
7471;SDS011;3777;48.722;8.110;2022-08-21T06:46:01;5.50;;;3.53;;
7471;SDS011;3777;48.722;8.110;2022-08-21T06:48:29;6.27;;;3.83;;
7471;SDS011;3777;48.722;8.110;2022-08-21T06:50:58;7.20;;;3.67;;
7471;SDS011;3777;48.722;8.110;2022-08-21T06:53:25;6.80;;;4.00;;
7471;SDS011;3777;48.722;8.110;2022-08-21T06:55:52;6.67;;;3.90;;
7471;SDS011;3777;48.722;8.110;2022-08-21T06:58:19;8.13;;;4.50;;
7471;SDS011;3777;48.722;8.110;2022-08-21T07:00:48;7.53;;;3.70;;
7471;SDS011;3777;48.722;8.110;2022-08-21T07:03:18;6.97;;;3.97;;
7471;SDS011;3777;48.722;8.110;2022-08-21T07:05:47;4.43;;;3.20;;
7471;SDS011;3777;48.722;8.110;2022-08-21T07:08:14;6.03;;;3.20;;
7471;SDS011;3777;48.722;8.110;2022-08-21T07:10:42;6.73;;;3.60;;
7471;SDS011;3777;48.722;8.110;2022-08-21T07:13:10;5.37;;;3.17;;
7471;SDS011;3777;48.722;8.110;2022-08-21T07:15:37;5.07;;;3.40;;
7471;SDS011;3777;48.722;8.110;2022-08-21T07:18:04;6.77;;;3.57;;
7471;SDS011;3777;48.722;8.110;2022-08-21T07:20:32;6.60;;;3.50;;
7471;SDS011;3777;48.722;8.110;2022-08-21T07:23:02;4.83;;;3.17;;
7471;SDS011;3777;48.722;8.110;2022-08-21T07:25:31;7.68;;;3.63;;
7471;SDS011;3777;48.722;8.110;2022-08-21T07:27:58;7.18;;;3.60;;
7471;SDS011;3777;48.722;8.110;2022-08-21T07:30:25;6.82;;;3.30;;
7471;SDS011;3777;48.722;8.110;2022-08-21T07:32:52;6.30;;;3.38;;
7471;SDS011;3777;48.722;8.110;2022-08-21T07:35:20;6.68;;;3.28;;
7471;SDS011;3777;48.722;8.110;2022-08-21T07:37:47;6.07;;;3.55;;
7471;SDS011;3777;48.722;8.110;2022-08-21T07:40:16;6.18;;;3.47;;
7471;SDS011;3777;48.722;8.110;2022-08-21T07:42:45;6.75;;;3.40;;
7471;SDS011;3777;48.722;8.110;2022-08-21T07:45:15;7.55;;;3.28;;
7471;SDS011;3777;48.722;8.110;2022-08-21T07:47:42;8.73;;;3.20;;
7471;SDS011;3777;48.722;8.110;2022-08-21T07:50:10;6.35;;;3.45;;
7471;SDS011;3777;48.722;8.110;2022-08-21T07:52:38;5.55;;;3.00;;
7471;SDS011;3777;48.722;8.110;2022-08-21T07:55:06;6.20;;;3.22;;
7471;SDS011;3777;48.722;8.110;2022-08-21T07:57:35;6.78;;;3.67;;
7471;SDS011;3777;48.722;8.110;2022-08-21T08:00:02;6.22;;;3.05;;
7471;SDS011;3777;48.722;8.110;2022-08-21T08:02:30;5.90;;;3.17;;
7471;SDS011;3777;48.722;8.110;2022-08-21T08:04:58;7.13;;;3.33;;
7471;SDS011;3777;48.722;8.110;2022-08-21T08:07:26;6.30;;;3.20;;
7471;SDS011;3777;48.722;8.110;2022-08-21T08:09:54;8.18;;;3.45;;
7471;SDS011;3777;48.722;8.110;2022-08-21T08:12:21;6.22;;;3.20;;
7471;SDS011;3777;48.722;8.110;2022-08-21T08:14:49;8.02;;;3.20;;
7471;SDS011;3777;48.722;8.110;2022-08-21T08:17:16;7.50;;;3.20;;
7471;SDS011;3777;48.722;8.110;2022-08-21T08:19:47;9.52;;;3.20;;
7471;SDS011;3777;48.722;8.110;2022-08-21T08:22:14;5.55;;;3.10;;
7471;SDS011;3777;48.722;8.110;2022-08-21T08:24:44;5.88;;;2.95;;
7471;SDS011;3777;48.722;8.110;2022-08-21T08:27:11;8.35;;;3.20;;
7471;SDS011;3777;48.722;8.110;2022-08-21T08:29:38;7.13;;;3.28;;
7471;SDS011;3777;48.722;8.110;2022-08-21T08:32:07;5.43;;;2.95;;
7471;SDS011;3777;48.722;8.110;2022-08-21T08:34:34;5.72;;;3.08;;
7471;SDS011;3777;48.722;8.110;2022-08-21T08:37:01;8.95;;;3.30;;
7471;SDS011;3777;48.722;8.110;2022-08-21T08:39:29;5.32;;;3.05;;
7471;SDS011;3777;48.722;8.110;2022-08-21T08:41:58;5.38;;;3.30;;
7471;SDS011;3777;48.722;8.110;2022-08-21T08:44:31;5.50;;;3.38;;
7471;SDS011;3777;48.722;8.110;2022-08-21T08:46:59;4.25;;;2.90;;
7471;SDS011;3777;48.722;8.110;2022-08-21T08:49:31;4.53;;;2.80;;
7471;SDS011;3777;48.722;8.110;2022-08-21T08:52:05;5.40;;;2.88;;
7471;SDS011;3777;48.722;8.110;2022-08-21T08:54:47;7.10;;;2.92;;
7471;SDS011;3777;48.722;8.110;2022-08-21T08:57:18;7.07;;;3.35;;
7471;SDS011;3777;48.722;8.110;2022-08-21T08:59:50;5.60;;;3.17;;
7471;SDS011;3777;48.722;8.110;2022-08-21T09:02:18;5.65;;;2.90;;
7471;SDS011;3777;48.722;8.110;2022-08-21T09:04:47;6.13;;;3.08;;
7471;SDS011;3777;48.722;8.110;2022-08-21T09:07:18;6.03;;;3.30;;
7471;SDS011;3777;48.722;8.110;2022-08-21T09:10:00;6.47;;;3.17;;
7471;SDS011;3777;48.722;8.110;2022-08-21T09:12:34;5.82;;;2.70;;
7471;SDS011;3777;48.722;8.110;2022-08-21T09:15:11;6.78;;;3.20;;
7471;SDS011;3777;48.722;8.110;2022-08-21T09:17:52;7.22;;;3.00;;
7471;SDS011;3777;48.722;8.110;2022-08-21T09:20:32;6.03;;;3.22;;
7471;SDS011;3777;48.722;8.110;2022-08-21T09:23:08;5.25;;;2.90;;
7471;SDS011;3777;48.722;8.110;2022-08-21T09:25:46;4.88;;;2.78;;
7471;SDS011;3777;48.722;8.110;2022-08-21T09:28:20;8.98;;;3.25;;
7471;SDS011;3777;48.722;8.110;2022-08-21T09:30:47;5.45;;;2.70;;
7471;SDS011;3777;48.722;8.110;2022-08-21T09:33:16;4.97;;;3.00;;
7471;SDS011;3777;48.722;8.110;2022-08-21T09:35:52;6.50;;;2.92;;
7471;SDS011;3777;48.722;8.110;2022-08-21T09:38:26;6.63;;;2.78;;
7471;SDS011;3777;48.722;8.110;2022-08-21T09:40:58;7.78;;;3.30;;
7471;SDS011;3777;48.722;8.110;2022-08-21T09:43:27;7.05;;;2.78;;
7471;SDS011;3777;48.722;8.110;2022-08-21T09:46:02;5.95;;;3.00;;
7471;SDS011;3777;48.722;8.110;2022-08-21T09:48:38;7.07;;;3.20;;
7471;SDS011;3777;48.722;8.110;2022-08-21T09:51:13;8.70;;;3.40;;
7471;SDS011;3777;48.722;8.110;2022-08-21T09:53:45;7.35;;;2.80;;
7471;SDS011;3777;48.722;8.110;2022-08-21T09:56:21;7.18;;;3.10;;
7471;SDS011;3777;48.722;8.110;2022-08-21T09:59:14;5.65;;;3.00;;
7471;SDS011;3777;48.722;8.110;2022-08-21T10:01:44;5.22;;;2.70;;
7471;SDS011;3777;48.722;8.110;2022-08-21T10:04:13;4.57;;;3.00;;
7471;SDS011;3777;48.722;8.110;2022-08-21T10:06:42;7.38;;;2.58;;
7471;SDS011;3777;48.722;8.110;2022-08-21T10:09:11;5.97;;;2.70;;
7471;SDS011;3777;48.722;8.110;2022-08-21T10:11:42;7.65;;;2.67;;
7471;SDS011;3777;48.722;8.110;2022-08-21T10:14:16;4.75;;;2.70;;
7471;SDS011;3777;48.722;8.110;2022-08-21T10:16:56;4.88;;;2.83;;
7471;SDS011;3777;48.722;8.110;2022-08-21T10:19:31;3.97;;;2.40;;
7471;SDS011;3777;48.722;8.110;2022-08-21T10:22:09;5.03;;;2.40;;
7471;SDS011;3777;48.722;8.110;2022-08-21T10:24:46;6.05;;;2.70;;
7471;SDS011;3777;48.722;8.110;2022-08-21T10:27:22;4.97;;;2.58;;
7471;SDS011;3777;48.722;8.110;2022-08-21T10:29:59;7.95;;;2.90;;
7471;SDS011;3777;48.722;8.110;2022-08-21T10:35:24;3.83;;;2.30;;
7471;SDS011;3777;48.722;8.110;2022-08-21T10:38:01;5.97;;;2.70;;
7471;SDS011;3777;48.722;8.110;2022-08-21T10:41:02;9.35;;;2.45;;
7471;SDS011;3777;48.722;8.110;2022-08-21T10:43:38;4.80;;;2.30;;
7471;SDS011;3777;48.722;8.110;2022-08-21T10:46:20;5.72;;;2.22;;
7471;SDS011;3777;48.722;8.110;2022-08-21T10:48:56;4.88;;;2.28;;
7471;SDS011;3777;48.722;8.110;2022-08-21T10:51:27;4.65;;;2.50;;
7471;SDS011;3777;48.722;8.110;2022-08-21T10:54:02;6.70;;;2.65;;
7471;SDS011;3777;48.722;8.110;2022-08-21T10:56:34;6.80;;;2.60;;
7471;SDS011;3777;48.722;8.110;2022-08-21T10:59:07;5.85;;;2.47;;
7471;SDS011;3777;48.722;8.110;2022-08-21T11:01:48;4.60;;;2.35;;
7471;SDS011;3777;48.722;8.110;2022-08-21T11:04:20;5.65;;;2.40;;
7471;SDS011;3777;48.722;8.110;2022-08-21T11:06:53;4.05;;;2.30;;
7471;SDS011;3777;48.722;8.110;2022-08-21T11:09:28;3.25;;;2.30;;
7471;SDS011;3777;48.722;8.110;2022-08-21T11:11:57;4.38;;;2.33;;
7471;SDS011;3777;48.722;8.110;2022-08-21T11:14:31;4.43;;;2.40;;
7471;SDS011;3777;48.722;8.110;2022-08-21T11:17:06;5.22;;;2.30;;
7471;SDS011;3777;48.722;8.110;2022-08-21T11:19:38;3.92;;;2.28;;
7471;SDS011;3777;48.722;8.110;2022-08-21T11:22:11;3.85;;;2.05;;
7471;SDS011;3777;48.722;8.110;2022-08-21T11:24:44;5.72;;;2.38;;
7471;SDS011;3777;48.722;8.110;2022-08-21T11:27:18;3.60;;;2.10;;
7471;SDS011;3777;48.722;8.110;2022-08-21T11:29:51;5.10;;;2.30;;
7471;SDS011;3777;48.722;8.110;2022-08-21T11:32:32;4.70;;;2.10;;
7471;SDS011;3777;48.722;8.110;2022-08-21T11:35:18;6.18;;;2.40;;
7471;SDS011;3777;48.722;8.110;2022-08-21T11:37:55;6.57;;;2.20;;
7471;SDS011;3777;48.722;8.110;2022-08-21T11:40:43;4.13;;;2.30;;
7471;SDS011;3777;48.722;8.110;2022-08-21T11:43:20;3.70;;;2.10;;
7471;SDS011;3777;48.722;8.110;2022-08-21T11:45:59;3.97;;;2.30;;
7471;SDS011;3777;48.722;8.110;2022-08-21T11:48:43;4.95;;;2.17;;
7471;SDS011;3777;48.722;8.110;2022-08-21T11:51:19;5.28;;;2.55;;
7471;SDS011;3777;48.722;8.110;2022-08-21T11:53:56;3.85;;;2.30;;
7471;SDS011;3777;48.722;8.110;2022-08-21T11:56:30;5.93;;;2.22;;
7471;SDS011;3777;48.722;8.110;2022-08-21T11:59:02;4.55;;;2.28;;
7471;SDS011;3777;48.722;8.110;2022-08-21T12:01:35;4.90;;;2.35;;
7471;SDS011;3777;48.722;8.110;2022-08-21T12:04:07;4.80;;;2.40;;
7471;SDS011;3777;48.722;8.110;2022-08-21T12:06:42;3.42;;;2.45;;
7471;SDS011;3777;48.722;8.110;2022-08-21T12:09:10;5.20;;;2.30;;
7471;SDS011;3777;48.722;8.110;2022-08-21T12:12:01;5.80;;;2.38;;
7471;SDS011;3777;48.722;8.110;2022-08-21T12:14:40;3.58;;;2.30;;
7471;SDS011;3777;48.722;8.110;2022-08-21T12:17:16;5.32;;;2.60;;
7471;SDS011;3777;48.722;8.110;2022-08-21T12:19:56;3.45;;;2.28;;
7471;SDS011;3777;48.722;8.110;2022-08-21T12:22:30;4.38;;;2.13;;
7471;SDS011;3777;48.722;8.110;2022-08-21T12:25:03;4.18;;;2.28;;
7471;SDS011;3777;48.722;8.110;2022-08-21T12:27:44;5.60;;;2.55;;
7471;SDS011;3777;48.722;8.110;2022-08-21T12:30:19;4.70;;;2.70;;
7471;SDS011;3777;48.722;8.110;2022-08-21T12:32:55;4.53;;;2.60;;
7471;SDS011;3777;48.722;8.110;2022-08-21T12:35:25;4.35;;;2.45;;
7471;SDS011;3777;48.722;8.110;2022-08-21T12:37:59;4.82;;;2.22;;
7471;SDS011;3777;48.722;8.110;2022-08-21T12:40:37;5.38;;;2.35;;
7471;SDS011;3777;48.722;8.110;2022-08-21T12:43:11;5.13;;;2.50;;
7471;SDS011;3777;48.722;8.110;2022-08-21T12:45:42;5.22;;;2.70;;
7471;SDS011;3777;48.722;8.110;2022-08-21T12:48:12;4.72;;;2.30;;
7471;SDS011;3777;48.722;8.110;2022-08-21T12:50:45;6.00;;;2.47;;
7471;SDS011;3777;48.722;8.110;2022-08-21T12:53:19;4.30;;;2.50;;
7471;SDS011;3777;48.722;8.110;2022-08-21T12:55:53;4.75;;;2.67;;
7471;SDS011;3777;48.722;8.110;2022-08-21T12:58:29;4.68;;;2.38;;
7471;SDS011;3777;48.722;8.110;2022-08-21T13:01:00;5.90;;;2.38;;
7471;SDS011;3777;48.722;8.110;2022-08-21T13:03:29;3.88;;;2.50;;
7471;SDS011;3777;48.722;8.110;2022-08-21T13:05:58;3.55;;;2.40;;
7471;SDS011;3777;48.722;8.110;2022-08-21T13:08:25;4.07;;;2.50;;
7471;SDS011;3777;48.722;8.110;2022-08-21T13:10:56;5.40;;;2.40;;
7471;SDS011;3777;48.722;8.110;2022-08-21T13:13:25;3.50;;;2.20;;
7471;SDS011;3777;48.722;8.110;2022-08-21T13:15:58;3.95;;;2.20;;
7471;SDS011;3777;48.722;8.110;2022-08-21T13:18:27;5.32;;;2.67;;
7471;SDS011;3777;48.722;8.110;2022-08-21T13:21:02;4.25;;;2.50;;
7471;SDS011;3777;48.722;8.110;2022-08-21T13:23:32;8.15;;;2.55;;
7471;SDS011;3777;48.722;8.110;2022-08-21T13:25:59;5.80;;;2.75;;
7471;SDS011;3777;48.722;8.110;2022-08-21T13:28:32;5.57;;;2.70;;
7471;SDS011;3777;48.722;8.110;2022-08-21T13:31:06;4.35;;;2.70;;
7471;SDS011;3777;48.722;8.110;2022-08-21T13:33:36;5.10;;;2.55;;
7471;SDS011;3777;48.722;8.110;2022-08-21T13:36:07;5.20;;;3.03;;
7471;SDS011;3777;48.722;8.110;2022-08-21T13:38:37;3.05;;;2.45;;
7471;SDS011;3777;48.722;8.110;2022-08-21T13:41:08;4.00;;;2.40;;
7471;SDS011;3777;48.722;8.110;2022-08-21T13:43:44;5.55;;;2.58;;
7471;SDS011;3777;48.722;8.110;2022-08-21T13:46:15;4.78;;;2.55;;
7471;SDS011;3777;48.722;8.110;2022-08-21T13:48:44;3.63;;;2.33;;
7471;SDS011;3777;48.722;8.110;2022-08-21T13:51:11;3.17;;;2.40;;
7471;SDS011;3777;48.722;8.110;2022-08-21T13:53:44;5.82;;;2.50;;
7471;SDS011;3777;48.722;8.110;2022-08-21T13:56:26;3.10;;;2.38;;
7471;SDS011;3777;48.722;8.110;2022-08-21T13:58:56;3.75;;;2.50;;
7471;SDS011;3777;48.722;8.110;2022-08-21T14:01:26;3.20;;;2.22;;
7471;SDS011;3777;48.722;8.110;2022-08-21T14:03:58;5.47;;;2.60;;
7471;SDS011;3777;48.722;8.110;2022-08-21T14:06:28;3.63;;;2.38;;
7471;SDS011;3777;48.722;8.110;2022-08-21T14:09:01;3.20;;;2.20;;
7471;SDS011;3777;48.722;8.110;2022-08-21T14:11:34;3.85;;;2.33;;
7471;SDS011;3777;48.722;8.110;2022-08-21T14:14:03;3.65;;;2.45;;
7471;SDS011;3777;48.722;8.110;2022-08-21T14:16:42;4.07;;;2.50;;
7471;SDS011;3777;48.722;8.110;2022-08-21T14:19:15;5.13;;;2.40;;
7471;SDS011;3777;48.722;8.110;2022-08-21T14:21:45;5.10;;;2.60;;
7471;SDS011;3777;48.722;8.110;2022-08-21T14:24:13;4.15;;;2.58;;
7471;SDS011;3777;48.722;8.110;2022-08-21T14:26:51;3.33;;;2.30;;
7471;SDS011;3777;48.722;8.110;2022-08-21T14:29:20;3.88;;;2.35;;
7471;SDS011;3777;48.722;8.110;2022-08-21T14:31:52;3.95;;;2.60;;
7471;SDS011;3777;48.722;8.110;2022-08-21T14:34:24;4.05;;;2.60;;
7471;SDS011;3777;48.722;8.110;2022-08-21T14:36:52;3.53;;;2.42;;
7471;SDS011;3777;48.722;8.110;2022-08-21T14:39:19;5.45;;;2.70;;
7471;SDS011;3777;48.722;8.110;2022-08-21T14:41:47;4.75;;;2.50;;
7471;SDS011;3777;48.722;8.110;2022-08-21T14:44:15;4.20;;;2.75;;
7471;SDS011;3777;48.722;8.110;2022-08-21T14:46:43;3.55;;;2.38;;
7471;SDS011;3777;48.722;8.110;2022-08-21T14:49:11;4.75;;;2.35;;
7471;SDS011;3777;48.722;8.110;2022-08-21T14:51:39;4.82;;;2.50;;
7471;SDS011;3777;48.722;8.110;2022-08-21T14:54:06;4.38;;;2.55;;
7471;SDS011;3777;48.722;8.110;2022-08-21T14:56:34;4.93;;;2.60;;
7471;SDS011;3777;48.722;8.110;2022-08-21T14:59:03;3.70;;;2.40;;
7471;SDS011;3777;48.722;8.110;2022-08-21T15:01:32;3.50;;;2.40;;
7471;SDS011;3777;48.722;8.110;2022-08-21T15:04:02;3.72;;;2.58;;
7471;SDS011;3777;48.722;8.110;2022-08-21T15:06:31;4.00;;;2.35;;
7471;SDS011;3777;48.722;8.110;2022-08-21T15:08:58;4.03;;;2.50;;
7471;SDS011;3777;48.722;8.110;2022-08-21T15:11:27;3.67;;;2.22;;
7471;SDS011;3777;48.722;8.110;2022-08-21T15:13:55;5.50;;;2.40;;
7471;SDS011;3777;48.722;8.110;2022-08-21T15:16:24;4.22;;;2.25;;
7471;SDS011;3777;48.722;8.110;2022-08-21T15:18:53;4.10;;;2.58;;
7471;SDS011;3777;48.722;8.110;2022-08-21T15:21:20;6.25;;;2.63;;
7471;SDS011;3777;48.722;8.110;2022-08-21T15:23:48;4.10;;;2.47;;
7471;SDS011;3777;48.722;8.110;2022-08-21T15:26:15;4.57;;;2.38;;
7471;SDS011;3777;48.722;8.110;2022-08-21T15:28:42;5.13;;;2.58;;
7471;SDS011;3777;48.722;8.110;2022-08-21T15:31:09;4.65;;;2.42;;
7471;SDS011;3777;48.722;8.110;2022-08-21T15:33:36;3.78;;;2.42;;
7471;SDS011;3777;48.722;8.110;2022-08-21T15:36:03;6.43;;;2.03;;